Time;durP1;ratioP1;P1;durP2;ratioP2;P2;SDS_P1;SDS_P2;PMS_P1;PMS_P2;Temp;Humidity;BMP_temperature;BMP_pressure;BME280_temperature;BME280_humidity;BME280_pressure;Samples;Min_cycle;Max_cycle;Signal;HPM_P1;HPM_P2
2023/06/28 00:00:12;;;;;;;13.18;4.07;;;24.70;60.00;;;;;;5033067;28;20024;-52
2023/06/28 00:02:37;;;;;;;10.75;3.63;;;24.60;60.70;;;;;;5013462;28;20040;-52
2023/06/28 00:05:10;;;;;;;26.38;4.43;;;24.60;60.10;;;;;;5048278;28;20025;-52
2023/06/28 00:07:35;;;;;;;15.13;3.95;;;24.60;60.10;;;;;;5078146;28;20094;-52
2023/06/28 00:10:01;;;;;;;14.55;3.38;;;24.60;60.10;;;;;;5069711;28;20452;-52
2023/06/28 00:12:28;;;;;;;9.95;3.72;;;24.60;60.20;;;;;;5067887;28;20036;-52
2023/06/28 00:14:54;;;;;;;17.83;4.07;;;24.60;60.10;;;;;;5051057;28;20037;-52
2023/06/28 00:17:27;;;;;;;15.02;4.07;;;24.60;60.20;;;;;;5068229;28;20047;-52
2023/06/28 00:19:55;;;;;;;10.73;3.42;;;24.50;60.20;;;;;;5067067;28;20051;-52
2023/06/28 00:22:28;;;;;;;13.75;3.80;;;24.50;60.30;;;;;;5068830;28;20028;-52
2023/06/28 00:24:54;;;;;;;13.45;3.28;;;24.50;60.20;;;;;;5069406;28;20154;-52
2023/06/28 00:27:20;;;;;;;10.15;3.33;;;24.50;60.30;;;;;;5085918;28;20033;-52
2023/06/28 00:29:45;;;;;;;21.77;3.70;;;24.50;60.30;;;;;;5083145;28;20096;-52
2023/06/28 00:32:11;;;;;;;10.55;3.53;;;24.40;60.30;;;;;;5066773;28;20499;-52
2023/06/28 00:34:37;;;;;;;14.85;3.35;;;24.30;60.30;;;;;;5059037;28;20085;-52
2023/06/28 00:37:02;;;;;;;11.45;3.03;;;24.40;60.30;;;;;;5032447;28;20017;-53
2023/06/28 00:39:28;;;;;;;8.68;3.40;;;24.40;60.40;;;;;;5063999;28;20428;-52
2023/06/28 00:41:53;;;;;;;8.07;2.92;;;24.30;60.40;;;;;;5067032;28;20056;-52
2023/06/28 00:44:19;;;;;;;14.77;3.33;;;24.30;60.50;;;;;;5085872;28;20108;-52
2023/06/28 00:46:45;;;;;;;11.52;3.53;;;24.30;60.50;;;;;;5085525;28;20025;-52
2023/06/28 00:49:11;;;;;;;8.48;3.08;;;24.30;60.60;;;;;;5068542;28;20062;-52
2023/06/28 00:51:36;;;;;;;10.85;3.45;;;24.30;60.70;;;;;;5063677;28;20438;-52
2023/06/28 00:54:02;;;;;;;10.38;3.00;;;24.20;60.70;;;;;;5058941;28;20468;-52
2023/06/28 00:56:28;;;;;;;11.90;3.33;;;24.20;60.70;;;;;;5067667;28;20046;-51
2023/06/28 00:58:53;;;;;;;9.30;2.90;;;24.20;60.80;;;;;;5068624;28;20032;-52
2023/06/28 01:01:19;;;;;;;7.63;3.08;;;24.20;60.80;;;;;;5066552;28;20047;-52
2023/06/28 01:03:44;;;;;;;8.85;3.13;;;24.10;60.80;;;;;;5084621;28;20024;-51
2023/06/28 01:06:12;;;;;;;10.07;3.17;;;24.20;60.90;;;;;;5061710;28;20027;-52
2023/06/28 01:08:41;;;;;;;11.68;3.00;;;24.10;61.00;;;;;;5068630;28;20048;-51
2023/06/28 01:11:07;;;;;;;11.57;3.40;;;24.10;61.00;;;;;;5067494;28;20023;-52
2023/06/28 01:13:33;;;;;;;8.48;2.88;;;24.10;61.10;;;;;;5050797;28;20094;-52
2023/06/28 01:15:59;;;;;;;8.70;2.90;;;24.10;61.10;;;;;;5048553;28;20032;-51
2023/06/28 01:18:25;;;;;;;7.07;2.88;;;24.00;61.00;;;;;;5067555;28;20422;-52
2023/06/28 01:20:54;;;;;;;7.10;2.63;;;24.00;61.10;;;;;;5066875;28;20040;-52
2023/06/28 01:23:21;;;;;;;6.35;2.65;;;24.00;61.20;;;;;;5068845;28;20032;-52
2023/06/28 01:25:47;;;;;;;6.40;2.90;;;24.00;61.30;;;;;;5049027;28;20025;-52
2023/06/28 01:28:13;;;;;;;4.57;2.53;;;24.00;61.30;;;;;;5051481;28;20036;-51
2023/06/28 01:30:39;;;;;;;5.53;2.67;;;24.00;61.30;;;;;;5083299;28;20029;-52
2023/06/28 01:33:05;;;;;;;11.43;2.90;;;24.00;61.40;;;;;;5066292;28;20029;-52
2023/06/28 01:35:31;;;;;;;6.40;2.45;;;23.90;61.30;;;;;;5065928;28;20142;-52
2023/06/28 01:37:57;;;;;;;7.57;2.50;;;23.90;61.40;;;;;;5067558;28;20032;-52
2023/06/28 01:40:23;;;;;;;6.80;2.40;;;23.90;61.40;;;;;;5066397;28;20024;-52
2023/06/28 01:42:49;;;;;;;11.75;2.92;;;23.80;61.40;;;;;;5066258;28;20021;-52
2023/06/28 01:45:14;;;;;;;6.32;2.35;;;23.80;61.50;;;;;;5050178;28;20052;-52
2023/06/28 01:47:40;;;;;;;8.40;2.70;;;23.80;61.60;;;;;;5066944;28;20020;-51
2023/06/28 01:50:06;;;;;;;5.63;2.53;;;23.80;61.70;;;;;;5068186;28;20472;-52
2023/06/28 01:52:32;;;;;;;8.82;2.83;;;23.70;61.70;;;;;;5063055;28;20032;-52
2023/06/28 01:54:57;;;;;;;5.03;2.33;;;23.70;61.80;;;;;;5062126;28;20052;-52
2023/06/28 01:57:23;;;;;;;8.35;2.65;;;23.70;61.90;;;;;;5084920;28;20545;-52
2023/06/28 01:59:48;;;;;;;9.85;2.70;;;23.70;61.90;;;;;;5067947;28;20042;-52
2023/06/28 02:02:14;;;;;;;8.05;2.83;;;23.70;62.00;;;;;;5066683;28;20032;-52
2023/06/28 02:04:40;;;;;;;6.65;2.85;;;23.70;62.00;;;;;;5084342;28;20016;-51
2023/06/28 02:07:06;;;;;;;5.60;2.15;;;23.60;62.00;;;;;;5084884;28;20078;-52
2023/06/28 02:09:31;;;;;;;6.07;2.40;;;23.60;62.10;;;;;;5066447;28;20033;-51
2023/06/28 02:11:57;;;;;;;5.28;2.85;;;23.60;62.20;;;;;;5066536;28;20132;-52
2023/06/28 02:14:22;;;;;;;9.77;3.38;;;23.60;62.20;;;;;;5086358;28;20035;-52
2023/06/28 02:16:48;;;;;;;8.65;3.20;;;23.50;62.20;;;;;;5087509;28;20497;-52
2023/06/28 02:19:16;;;;;;;5.32;2.90;;;23.50;62.20;;;;;;5071517;28;20031;-51
2023/06/28 02:21:41;;;;;;;4.35;2.40;;;23.50;62.20;;;;;;5088345;28;20017;-52
2023/06/28 02:24:08;;;;;;;6.45;2.75;;;23.50;62.30;;;;;;5089338;28;20077;-52
2023/06/28 02:26:35;;;;;;;5.97;2.85;;;23.50;62.20;;;;;;5083222;28;20036;-52
2023/06/28 02:29:00;;;;;;;8.50;2.80;;;23.40;62.20;;;;;;5070563;28;20041;-52
2023/06/28 02:31:26;;;;;;;9.18;2.50;;;23.40;62.30;;;;;;5086703;28;20084;-51
2023/06/28 02:33:51;;;;;;;6.18;2.13;;;23.40;62.30;;;;;;5070382;28;20044;-51
2023/06/28 02:36:17;;;;;;;7.18;2.97;;;23.40;62.40;;;;;;5088240;28;20127;-52
2023/06/28 02:38:42;;;;;;;5.32;2.85;;;23.40;62.50;;;;;;5089187;28;20047;-52
2023/06/28 02:41:09;;;;;;;6.43;3.10;;;23.30;62.50;;;;;;5088123;28;20021;-52
2023/06/28 02:43:35;;;;;;;7.85;3.13;;;23.30;62.60;;;;;;5068199;28;20033;-52
2023/06/28 02:46:00;;;;;;;5.78;2.78;;;23.30;62.60;;;;;;5087729;28;20075;-52
2023/06/28 02:48:26;;;;;;;8.85;3.40;;;23.30;62.70;;;;;;5070138;28;20050;-52
2023/06/28 02:50:51;;;;;;;10.05;3.05;;;23.30;62.80;;;;;;5069467;28;20073;-52
2023/06/28 02:53:17;;;;;;;7.85;2.80;;;23.30;62.80;;;;;;5076109;28;20032;-52
2023/06/28 02:55:42;;;;;;;5.43;3.10;;;23.20;62.80;;;;;;5068437;28;20050;-52
2023/06/28 02:58:08;;;;;;;6.15;3.90;;;23.20;62.80;;;;;;5087915;28;20058;-51
2023/06/28 03:00:33;;;;;;;6.00;4.00;;;23.30;62.90;;;;;;5069425;28;20016;-51
2023/06/28 03:03:03;;;;;;;7.55;3.67;;;23.20;62.90;;;;;;5087331;28;20025;-52
2023/06/28 03:05:29;;;;;;;6.40;3.95;;;23.20;62.90;;;;;;5087766;28;20043;-51
2023/06/28 03:07:54;;;;;;;4.55;3.05;;;23.20;62.90;;;;;;5069198;28;20033;-52
2023/06/28 03:10:20;;;;;;;5.97;3.58;;;23.20;63.00;;;;;;5069760;28;20051;-52
2023/06/28 03:12:46;;;;;;;6.05;3.25;;;23.20;63.10;;;;;;5085834;28;20040;-52
2023/06/28 03:15:11;;;;;;;5.95;3.13;;;23.20;63.20;;;;;;5066428;28;20025;-52
2023/06/28 03:17:37;;;;;;;5.75;3.35;;;23.20;63.20;;;;;;5068048;28;20037;-51
2023/06/28 03:20:02;;;;;;;8.73;3.25;;;23.10;63.20;;;;;;5068332;28;20025;-51
2023/06/28 03:22:28;;;;;;;14.90;4.80;;;23.10;63.40;;;;;;5082142;28;20037;-51
2023/06/28 03:24:53;;;;;;;10.32;3.80;;;23.10;63.30;;;;;;5087760;28;20024;-51
2023/06/28 03:27:20;;;;;;;7.43;3.20;;;23.10;63.40;;;;;;5083456;28;20096;-52
2023/06/28 03:29:45;;;;;;;11.85;3.30;;;23.10;63.40;;;;;;5087328;28;20025;-52
2023/06/28 03:32:11;;;;;;;9.25;3.05;;;23.10;63.50;;;;;;5069358;28;20035;-52
2023/06/28 03:34:36;;;;;;;5.15;3.13;;;23.10;63.50;;;;;;5068114;28;20488;-52
2023/06/28 03:37:02;;;;;;;7.25;4.05;;;23.10;63.50;;;;;;5065973;28;20039;-52
2023/06/28 03:39:28;;;;;;;6.35;3.33;;;23.00;63.50;;;;;;5068940;28;20032;-51
2023/06/28 03:41:53;;;;;;;8.38;3.55;;;23.10;63.60;;;;;;5069820;28;20388;-51
2023/06/28 03:44:19;;;;;;;17.40;4.10;;;23.00;63.60;;;;;;5088447;28;20384;-51
2023/06/28 03:46:44;;;;;;;113.40;14.85;;;23.00;63.60;;;;;;5066761;28;20043;-52
2023/06/28 03:49:10;;;;;;;61.20;11.35;;;23.00;63.60;;;;;;5049849;28;20036;-51
2023/06/28 03:51:35;;;;;;;44.15;7.63;;;23.00;63.60;;;;;;5049952;28;20072;-52
2023/06/28 03:54:01;;;;;;;35.67;6.50;;;23.00;63.60;;;;;;5087722;28;20040;-52
2023/06/28 03:56:27;;;;;;;31.95;7.13;;;23.00;63.70;;;;;;5069637;28;20107;-51
2023/06/28 03:58:52;;;;;;;50.17;6.95;;;23.00;63.70;;;;;;5056890;28;20036;-51
2023/06/28 04:01:18;;;;;;;40.55;7.38;;;23.00;63.60;;;;;;5068869;28;20453;-52
2023/06/28 04:03:43;;;;;;;53.35;7.78;;;22.90;63.60;;;;;;5068711;28;20033;-51
2023/06/28 04:06:09;;;;;;;39.70;7.00;;;22.90;63.60;;;;;;5085856;28;20514;-52
2023/06/28 04:08:34;;;;;;;33.00;6.15;;;22.90;63.60;;;;;;5068518;28;20032;-52
2023/06/28 04:11:00;;;;;;;36.33;7.30;;;22.90;63.60;;;;;;5069670;28;20422;-52
2023/06/28 04:13:26;;;;;;;31.52;5.63;;;22.90;63.60;;;;;;5068261;28;20484;-52
2023/06/28 04:15:52;;;;;;;26.40;5.53;;;22.90;64.40;;;;;;5067763;28;20460;-52
2023/06/28 04:18:18;;;;;;;24.25;5.60;;;22.90;64.20;;;;;;5086461;28;20475;-52
2023/06/28 04:20:44;;;;;;;22.92;5.20;;;22.90;63.90;;;;;;5067880;28;20025;-51
2023/06/28 04:23:09;;;;;;;23.55;5.25;;;22.90;63.80;;;;;;5050766;28;20040;-52
2023/06/28 04:25:37;;;;;;;30.15;5.50;;;22.80;63.80;;;;;;5084634;28;20058;-51
2023/06/28 04:28:02;;;;;;;25.92;5.40;;;22.80;63.70;;;;;;5068479;28;20021;-52
2023/06/28 04:30:28;;;;;;;17.65;4.55;;;22.80;63.80;;;;;;5068083;28;20403;-51
2023/06/28 04:32:53;;;;;;;27.60;5.07;;;22.80;63.90;;;;;;5085919;28;20032;-52
2023/06/28 04:35:21;;;;;;;19.83;4.85;;;22.80;63.90;;;;;;5067818;28;20115;-52
2023/06/28 04:37:47;;;;;;;18.33;5.40;;;22.80;63.90;;;;;;5066337;28;20048;-52
2023/06/28 04:40:13;;;;;;;19.23;5.38;;;22.80;63.80;;;;;;5085276;28;20033;-51
2023/06/28 04:42:38;;;;;;;28.45;5.70;;;22.80;63.80;;;;;;5067959;28;20029;-52
2023/06/28 04:45:07;;;;;;;24.17;5.90;;;22.80;63.80;;;;;;5086818;28;20025;-51
2023/06/28 04:47:35;;;;;;;16.35;5.10;;;22.80;63.80;;;;;;5035431;28;20078;-52
2023/06/28 04:50:01;;;;;;;16.13;5.20;;;22.80;63.80;;;;;;5084988;28;20025;-52
2023/06/28 04:52:27;;;;;;;15.90;4.88;;;22.70;63.80;;;;;;5067390;28;20040;-52
2023/06/28 04:54:52;;;;;;;13.77;4.55;;;22.70;63.80;;;;;;5086304;28;20059;-52
2023/06/28 04:57:20;;;;;;;25.08;5.38;;;22.70;63.80;;;;;;5080349;28;20033;-52
2023/06/28 04:59:46;;;;;;;16.98;4.60;;;22.70;63.80;;;;;;5064678;28;20037;-52
2023/06/28 05:02:11;;;;;;;23.88;5.03;;;22.80;63.80;;;;;;5067041;28;20031;-52
2023/06/28 05:04:37;;;;;;;22.65;4.53;;;22.80;63.80;;;;;;5068381;28;20021;-52
2023/06/28 05:07:05;;;;;;;16.13;4.38;;;22.80;63.80;;;;;;5066858;28;20039;-52
2023/06/28 05:09:32;;;;;;;18.35;4.53;;;22.70;63.60;;;;;;5049693;28;20029;-52
2023/06/28 05:11:57;;;;;;;14.95;4.22;;;22.70;63.60;;;;;;5067517;28;20028;-52
2023/06/28 05:14:24;;;;;;;25.67;5.50;;;22.70;63.60;;;;;;5068390;28;20377;-51
2023/06/28 05:16:50;;;;;;;16.50;4.63;;;22.80;63.60;;;;;;5049253;28;20476;-52
2023/06/28 05:19:15;;;;;;;17.80;4.90;;;22.70;63.60;;;;;;5065840;28;20048;-52
2023/06/28 05:21:41;;;;;;;23.83;5.07;;;22.80;63.60;;;;;;5085766;28;20028;-52
2023/06/28 05:24:06;;;;;;;19.10;4.47;;;22.80;63.50;;;;;;5082435;28;20078;-52
2023/06/28 05:26:32;;;;;;;12.85;3.92;;;22.80;63.50;;;;;;5085338;28;20024;-52
2023/06/28 05:28:57;;;;;;;19.17;4.35;;;22.80;63.40;;;;;;5066491;28;20112;-52
2023/06/28 05:31:23;;;;;;;17.60;4.78;;;22.80;63.40;;;;;;5068026;28;20025;-52
2023/06/28 05:33:48;;;;;;;15.88;4.55;;;22.80;63.40;;;;;;5067274;28;20050;-52
2023/06/28 05:36:15;;;;;;;12.88;4.38;;;22.80;63.50;;;;;;5070587;28;20033;-52
2023/06/28 05:38:40;;;;;;;17.98;4.63;;;22.70;63.30;;;;;;5066012;28;20033;-52
2023/06/28 05:41:16;;;;;;;10.30;3.83;;;22.80;63.30;;;;;;5031758;28;20018;-52
2023/06/28 05:43:42;;;;;;;11.98;3.60;;;22.80;63.20;;;;;;5063978;28;20070;-52
2023/06/28 05:46:08;;;;;;;12.48;3.50;;;22.80;63.20;;;;;;5066734;28;20078;-52
2023/06/28 05:48:33;;;;;;;9.55;2.72;;;22.60;62.90;;;;;;5067072;28;20037;-52
2023/06/28 05:50:59;;;;;;;9.95;3.25;;;22.70;63.00;;;;;;5089611;28;20028;-52
2023/06/28 05:53:25;;;;;;;12.75;3.45;;;22.60;62.90;;;;;;5080238;28;20037;-53
2023/06/28 05:55:50;;;;;;;8.55;3.08;;;22.50;62.90;;;;;;5054452;28;20059;-52
2023/06/28 05:58:16;;;;;;;12.82;2.63;;;22.50;63.60;;;;;;5069757;28;20074;-52
2023/06/28 06:00:42;;;;;;;15.00;2.95;;;22.50;62.90;;;;;;5089141;28;20054;-52
2023/06/28 06:03:08;;;;;;;23.40;3.40;;;22.40;62.80;;;;;;5064482;28;20028;-52
2023/06/28 06:05:33;;;;;;;12.48;3.20;;;22.40;63.00;;;;;;5054238;28;20021;-52
2023/06/28 06:07:59;;;;;;;14.38;3.20;;;22.40;63.60;;;;;;5068677;28;20071;-52
2023/06/28 06:10:24;;;;;;;8.25;2.78;;;22.30;64.00;;;;;;5050351;28;20025;-52
2023/06/28 06:12:53;;;;;;;19.58;2.75;;;22.30;64.70;;;;;;5069539;28;20037;-52
2023/06/28 06:15:18;;;;;;;6.72;2.58;;;22.30;64.20;;;;;;5068082;28;20072;-52
2023/06/28 06:17:44;;;;;;;11.30;2.85;;;22.20;64.20;;;;;;5068571;28;20498;-52
2023/06/28 06:20:10;;;;;;;25.25;3.83;;;22.20;64.20;;;;;;5070478;28;20023;-52
2023/06/28 06:22:36;;;;;;;40.92;4.00;;;22.20;64.20;;;;;;5087511;28;20033;-52
2023/06/28 06:25:01;;;;;;;23.27;3.63;;;22.20;65.00;;;;;;5085929;28;20016;-52
2023/06/28 06:27:27;;;;;;;12.43;2.65;;;22.10;64.40;;;;;;5069123;28;20032;-52
2023/06/28 06:29:52;;;;;;;16.80;3.15;;;22.10;64.20;;;;;;5087833;28;20092;-52
2023/06/28 06:32:18;;;;;;;13.25;2.72;;;22.10;64.30;;;;;;5088005;28;20033;-52
2023/06/28 06:34:44;;;;;;;16.85;3.55;;;22.00;64.30;;;;;;5069678;28;20088;-52
2023/06/28 06:37:12;;;;;;;18.70;3.67;;;22.00;64.30;;;;;;5070002;28;20031;-52
2023/06/28 06:39:38;;;;;;;26.42;4.57;;;22.00;64.30;;;;;;5068173;28;20050;-52
2023/06/28 06:42:04;;;;;;;9.93;3.03;;;22.00;64.40;;;;;;5086637;28;20384;-52
2023/06/28 06:44:30;;;;;;;14.85;3.03;;;22.00;64.30;;;;;;5086386;28;20032;-52
2023/06/28 06:46:55;;;;;;;11.10;2.80;;;22.00;64.40;;;;;;5069932;28;20080;-51
2023/06/28 06:49:21;;;;;;;16.10;2.88;;;22.00;64.30;;;;;;5054029;28;20032;-52
2023/06/28 06:51:47;;;;;;;15.60;3.45;;;22.00;64.40;;;;;;5086954;28;20062;-52
2023/06/28 06:54:12;;;;;;;13.70;3.60;;;21.90;64.30;;;;;;5079735;28;20063;-52
2023/06/28 06:56:38;;;;;;;18.25;3.38;;;21.90;64.30;;;;;;5071221;28;20031;-52
2023/06/28 06:59:04;;;;;;;16.77;3.58;;;22.00;64.40;;;;;;5088003;28;20162;-52
2023/06/28 07:01:32;;;;;;;14.18;3.33;;;21.90;64.40;;;;;;5086672;28;20032;-52
2023/06/28 07:04:00;;;;;;;16.15;3.70;;;22.00;64.40;;;;;;5083336;28;20051;-52
2023/06/28 07:06:26;;;;;;;23.45;3.67;;;21.90;64.40;;;;;;5088705;28;20080;-52
2023/06/28 07:08:51;;;;;;;10.98;3.25;;;21.90;64.50;;;;;;5087758;28;20043;-52
2023/06/28 07:11:17;;;;;;;22.67;3.53;;;21.90;64.50;;;;;;5069454;28;20035;-51
2023/06/28 07:13:42;;;;;;;13.32;3.33;;;21.90;64.50;;;;;;5067829;28;20096;-52
2023/06/28 07:16:08;;;;;;;17.65;3.92;;;21.90;64.50;;;;;;5069905;28;20037;-52
2023/06/28 07:18:33;;;;;;;20.80;4.05;;;21.90;64.50;;;;;;5087309;28;20033;-52
2023/06/28 07:20:59;;;;;;;16.52;4.32;;;22.00;64.50;;;;;;5070093;28;20027;-52
2023/06/28 07:23:24;;;;;;;27.50;4.55;;;21.90;64.50;;;;;;5068451;28;20051;-52
2023/06/28 07:25:50;;;;;;;24.23;4.32;;;21.90;64.40;;;;;;5067870;28;20031;-52
2023/06/28 07:28:15;;;;;;;20.63;4.10;;;22.00;64.40;;;;;;5068959;28;20033;-52
2023/06/28 07:30:53;;;;;;;18.58;4.57;;;22.00;64.50;;;;;;5087033;28;20056;-52
2023/06/28 07:33:20;;;;;;;18.88;4.55;;;22.00;64.50;;;;;;5068608;28;20042;-52
2023/06/28 07:35:45;;;;;;;17.83;3.90;;;22.00;64.50;;;;;;5068409;28;20060;-58
2023/06/28 07:38:11;;;;;;;19.60;4.05;;;22.00;64.50;;;;;;5068626;28;20484;-58
2023/06/28 07:40:36;;;;;;;22.60;4.32;;;22.00;64.50;;;;;;5051545;28;20025;-58
2023/06/28 07:43:02;;;;;;;20.02;3.83;;;22.00;64.50;;;;;;5080407;28;20049;-58
2023/06/28 07:45:28;;;;;;;14.52;3.85;;;22.00;64.60;;;;;;5042166;28;20025;-58
2023/06/28 07:47:54;;;;;;;8.73;3.17;;;22.00;64.70;;;;;;5031039;28;20033;-58
2023/06/28 07:50:20;;;;;;;11.40;4.00;;;22.00;64.90;;;;;;5085473;28;20453;-58
2023/06/28 07:52:46;;;;;;;18.77;3.42;;;22.00;64.90;;;;;;5045571;28;20029;-58
2023/06/28 07:55:11;;;;;;;16.10;2.80;;;22.00;65.00;;;;;;5043824;28;20022;-58
2023/06/28 07:57:37;;;;;;;18.83;3.50;;;21.90;65.20;;;;;;5024369;28;20145;-58
2023/06/28 08:00:04;;;;;;;13.65;3.15;;;21.90;65.40;;;;;;5044391;28;20017;-58
2023/06/28 08:02:30;;;;;;;10.55;2.97;;;21.90;65.30;;;;;;5027033;28;20056;-58
2023/06/28 08:04:58;;;;;;;8.15;2.83;;;21.90;65.40;;;;;;5063100;28;20021;-58
2023/06/28 08:07:24;;;;;;;9.15;2.83;;;21.90;65.50;;;;;;5066068;28;20428;-58
2023/06/28 08:09:49;;;;;;;12.38;3.28;;;22.00;66.30;;;;;;5052411;28;20024;-58
2023/06/28 08:12:15;;;;;;;21.45;4.30;;;22.00;65.70;;;;;;5085641;28;20028;-58
2023/06/28 08:14:41;;;;;;;26.50;4.18;;;22.00;65.90;;;;;;5067987;28;20031;-58
2023/06/28 08:17:06;;;;;;;28.83;4.18;;;22.00;66.20;;;;;;5085085;28;20033;-58
2023/06/28 08:19:32;;;;;;;22.58;4.13;;;22.00;66.40;;;;;;5050574;28;20032;-58
2023/06/28 08:21:58;;;;;;;26.45;4.25;;;22.00;66.20;;;;;;5032173;28;20017;-57
2023/06/28 08:24:24;;;;;;;28.27;4.50;;;22.00;66.20;;;;;;5040187;28;20033;-58
2023/06/28 08:26:49;;;;;;;24.17;4.15;;;22.00;66.50;;;;;;5050576;28;20033;-58
2023/06/28 08:29:16;;;;;;;19.95;4.25;;;22.00;66.50;;;;;;5076455;28;20124;-58
2023/06/28 08:31:42;;;;;;;80.72;8.50;;;22.00;66.60;;;;;;5069266;28;20025;-58
2023/06/28 08:34:07;;;;;;;22.80;4.95;;;22.00;66.40;;;;;;5057001;28;20036;-57
2023/06/28 08:36:33;;;;;;;34.38;5.13;;;22.00;66.20;;;;;;5066224;28;20029;-58
2023/06/28 08:38:58;;;;;;;22.63;4.13;;;22.00;66.20;;;;;;5044771;28;20028;-58
2023/06/28 08:41:24;;;;;;;32.75;4.50;;;22.00;66.00;;;;;;5056950;28;20124;-58
2023/06/28 08:43:53;;;;;;;10.18;3.13;;;22.10;66.00;;;;;;5079376;28;20361;-57
2023/06/28 08:46:19;;;;;;;25.50;3.15;;;22.00;65.80;;;;;;5076598;28;20476;-58
2023/06/28 08:48:45;;;;;;;54.15;7.40;;;22.00;65.80;;;;;;5062742;28;20044;-58
2023/06/28 08:51:12;;;;;;;34.17;4.88;;;22.10;65.80;;;;;;5049085;28;20040;-58
2023/06/28 08:53:38;;;;;;;24.27;4.20;;;22.20;65.70;;;;;;5060253;28;20037;-58
2023/06/28 08:56:03;;;;;;;16.33;3.33;;;22.20;65.70;;;;;;5041926;28;20108;-57
2023/06/28 08:58:29;;;;;;;22.73;3.88;;;22.10;65.60;;;;;;5050126;28;20464;-58
2023/06/28 09:00:56;;;;;;;15.48;3.67;;;22.10;65.70;;;;;;5066745;28;20028;-58
2023/06/28 09:03:22;;;;;;;12.85;3.50;;;22.20;65.50;;;;;;5058257;28;20067;-58
2023/06/28 09:05:47;;;;;;;26.10;4.93;;;22.20;65.50;;;;;;5041356;28;20029;-58
2023/06/28 09:08:13;;;;;;;32.58;4.90;;;22.30;65.50;;;;;;5048491;28;20043;-58
2023/06/28 09:10:39;;;;;;;27.45;3.88;;;22.30;65.60;;;;;;5066170;28;20039;-58
2023/06/28 09:13:05;;;;;;;18.15;3.80;;;22.30;65.50;;;;;;5081330;28;20072;-57
2023/06/28 09:15:33;;;;;;;26.90;5.15;;;22.40;65.60;;;;;;5048176;28;20021;-58
2023/06/28 09:17:58;;;;;;;26.35;4.55;;;22.40;65.50;;;;;;5066193;28;20044;-58
2023/06/28 09:20:24;;;;;;;15.88;3.72;;;22.40;65.50;;;;;;5048204;28;20017;-58
2023/06/28 09:22:59;;;;;;;24.27;4.10;;;22.40;65.60;;;;;;5069002;28;20104;-58
2023/06/28 09:25:27;;;;;;;10.77;3.78;;;22.40;65.90;;;;;;5065546;28;20047;-56
2023/06/28 09:27:54;;;;;;;20.30;4.00;;;22.50;65.20;;;;;;5085147;28;20059;-56
2023/06/28 09:30:19;;;;;;;19.23;3.55;;;22.50;65.10;;;;;;5067156;28;20036;-58
2023/06/28 09:32:51;;;;;;;12.90;3.45;;;22.50;65.80;;;;;;5066854;28;20025;-55
2023/06/28 09:35:21;;;;;;;22.55;3.67;;;22.50;65.00;;;;;;5068268;28;20080;-56
2023/06/28 09:37:48;;;;;;;22.05;4.68;;;22.50;64.90;;;;;;5068035;28;20029;-58
2023/06/28 09:40:17;;;;;;;15.63;3.92;;;22.60;65.10;;;;;;5065662;28;21138;-58
2023/06/28 09:42:44;;;;;;;18.30;4.43;;;22.60;64.60;;;;;;5065491;28;20051;-56
2023/06/28 09:45:11;;;;;;;14.45;3.90;;;22.70;64.30;;;;;;5067653;28;20025;-58
2023/06/28 09:47:37;;;;;;;16.42;3.95;;;22.70;64.00;;;;;;5066523;28;20131;-55
2023/06/28 09:50:02;;;;;;;23.67;4.05;;;22.70;63.90;;;;;;5050795;28;20024;-56
2023/06/28 09:52:36;;;;;;;39.85;4.80;;;22.70;63.90;;;;;;5067576;28;20060;-56
2023/06/28 09:55:03;;;;;;;28.30;5.57;;;22.70;63.90;;;;;;5068227;28;20461;-56
2023/06/28 09:57:29;;;;;;;30.77;4.82;;;22.80;64.20;;;;;;5084612;28;20526;-56
2023/06/28 09:59:54;;;;;;;136.52;17.60;;;22.80;64.10;;;;;;5058434;28;20045;-56
2023/06/28 10:02:20;;;;;;;52.30;7.13;;;22.80;63.90;;;;;;5049849;28;20024;-56
2023/06/28 10:04:46;;;;;;;52.80;8.00;;;22.80;63.80;;;;;;5047392;28;20559;-57
2023/06/28 10:07:11;;;;;;;49.88;7.53;;;22.80;63.50;;;;;;5048825;28;20521;-57
2023/06/28 10:09:38;;;;;;;31.77;5.95;;;22.80;63.50;;;;;;5034930;28;20075;-57
2023/06/28 10:12:09;;;;;;;34.67;5.38;;;22.90;63.50;;;;;;5043963;28;20068;-57
2023/06/28 10:14:38;;;;;;;20.40;4.28;;;22.90;63.50;;;;;;5028722;28;20044;-57
2023/06/28 10:17:04;;;;;;;24.70;4.60;;;22.90;63.40;;;;;;5045142;28;20071;-56
2023/06/28 10:19:30;;;;;;;29.50;5.82;;;22.90;63.10;;;;;;5029231;28;20021;-57
2023/06/28 10:21:55;;;;;;;48.17;5.93;;;23.00;63.10;;;;;;5043443;28;20028;-56
2023/06/28 10:24:21;;;;;;;37.72;5.10;;;23.00;62.90;;;;;;5027981;28;20036;-57
2023/06/28 10:26:48;;;;;;;30.05;4.57;;;23.10;62.90;;;;;;5046257;28;20053;-57
2023/06/28 10:29:13;;;;;;;38.47;5.45;;;23.10;62.50;;;;;;5047540;28;20037;-57
2023/06/28 10:31:39;;;;;;;70.72;9.52;;;23.10;62.20;;;;;;5065210;28;20025;-57
2023/06/28 10:34:05;;;;;;;59.15;8.00;;;23.10;62.20;;;;;;5045552;28;20033;-57
2023/06/28 10:36:30;;;;;;;54.28;7.28;;;23.20;62.20;;;;;;5016407;28;20040;-57
2023/06/28 10:38:56;;;;;;;49.45;6.57;;;23.30;62.20;;;;;;5017004;28;20029;-57
2023/06/28 10:41:21;;;;;;;34.80;6.18;;;23.30;62.20;;;;;;5014494;28;20439;-57
2023/06/28 10:43:47;;;;;;;36.00;6.63;;;23.40;62.00;;;;;;5029788;28;20411;-57
2023/06/28 10:46:22;;;;;;;51.40;6.13;;;23.40;61.80;;;;;;5028383;28;20067;-57
2023/06/28 10:48:48;;;;;;;38.53;5.65;;;23.40;61.90;;;;;;5062461;28;20036;-57
2023/06/28 10:51:14;;;;;;;44.58;6.20;;;23.50;62.00;;;;;;5032395;28;20081;-57
2023/06/28 10:53:42;;;;;;;20.48;4.90;;;23.50;62.00;;;;;;5050286;28;20082;-57
2023/06/28 10:56:12;;;;;;;45.25;8.40;;;23.60;61.70;;;;;;5046576;28;20025;-57
2023/06/28 10:58:41;;;;;;;51.92;8.40;;;23.60;61.50;;;;;;5049334;28;20036;-57
2023/06/28 11:01:08;;;;;;;46.80;7.57;;;23.70;61.40;;;;;;5041664;28;20088;-57
2023/06/28 11:03:52;;;;;;;66.68;7.05;;;23.80;61.30;;;;;;5043373;28;20021;-57
2023/06/28 11:06:17;;;;;;;45.50;7.30;;;23.80;61.20;;;;;;5060475;28;20029;-57
2023/06/28 11:08:44;;;;;;;41.10;5.53;;;23.90;61.40;;;;;;5026682;28;20514;-57
2023/06/28 11:11:29;;;;;;;42.25;6.35;;;24.00;61.20;;;;;;5063626;28;20025;-57
2023/06/28 11:13:54;;;;;;;52.55;6.53;;;24.00;60.80;;;;;;5063241;28;20037;-57
2023/06/28 11:16:24;;;;;;;32.80;5.55;;;24.10;60.80;;;;;;5033820;28;20086;-57
2023/06/28 11:18:50;;;;;;;31.95;5.03;;;24.10;60.70;;;;;;5024228;28;20117;-57
2023/06/28 11:21:17;;;;;;;34.03;5.47;;;24.20;60.40;;;;;;5031802;28;20021;-57
2023/06/28 11:23:47;;;;;;;36.03;5.22;;;24.20;60.10;;;;;;5063228;28;20372;-57
2023/06/28 11:26:17;;;;;;;21.42;4.05;;;24.30;59.90;;;;;;5050750;28;20055;-57
2023/06/28 11:28:50;;;;;;;31.15;5.60;;;24.40;59.50;;;;;;5028247;28;20065;-57
2023/06/28 11:31:26;;;;;;;18.02;4.15;;;24.40;59.40;;;;;;5040474;28;20040;-57
2023/06/28 11:33:54;;;;;;;27.52;4.80;;;24.50;59.40;;;;;;5061359;28;20033;-57
2023/06/28 11:36:22;;;;;;;26.25;4.05;;;24.60;59.30;;;;;;5041104;28;20036;-57
2023/06/28 11:38:47;;;;;;;24.48;4.30;;;24.70;59.20;;;;;;5023692;28;20024;-57
2023/06/28 11:41:16;;;;;;;27.08;4.30;;;24.80;59.00;;;;;;5025418;28;20105;-57
2023/06/28 11:43:45;;;;;;;28.20;4.53;;;24.80;58.90;;;;;;5025663;28;20039;-57
2023/06/28 11:46:18;;;;;;;34.45;5.05;;;24.90;58.80;;;;;;5040505;28;20037;-57
2023/06/28 11:48:45;;;;;;;32.35;5.00;;;25.00;58.70;;;;;;5057996;28;20104;-57
2023/06/28 11:51:10;;;;;;;30.25;4.75;;;25.10;58.60;;;;;;5055214;28;20029;-57
2023/06/28 11:53:36;;;;;;;28.05;4.75;;;25.10;58.30;;;;;;5036940;28;20283;-57
2023/06/28 11:56:01;;;;;;;30.83;4.78;;;25.30;58.30;;;;;;5043803;28;20117;-57
2023/06/28 11:58:34;;;;;;;24.38;4.28;;;25.20;58.10;;;;;;5046149;28;20041;-57
2023/06/28 12:01:00;;;;;;;25.45;4.63;;;25.30;58.00;;;;;;5037943;28;20058;-57
2023/06/28 12:03:44;;;;;;;40.03;5.53;;;25.40;57.90;;;;;;5051452;28;20033;-57
2023/06/28 12:06:10;;;;;;;31.17;5.15;;;25.50;57.40;;;;;;5039025;28;20032;-57
2023/06/28 12:08:36;;;;;;;38.22;6.20;;;25.50;57.60;;;;;;5030593;28;20052;-57
2023/06/28 12:11:10;;;;;;;34.15;6.95;;;25.60;57.30;;;;;;5041003;28;20483;-57
2023/06/28 12:13:36;;;;;;;45.13;5.57;;;25.60;57.30;;;;;;5056632;28;20048;-57
2023/06/28 12:16:18;;;;;;;51.03;6.35;;;25.70;57.20;;;;;;5058408;28;20029;-57
2023/06/28 12:18:57;;;;;;;38.78;5.95;;;25.80;57.20;;;;;;5041013;28;20036;-57
2023/06/28 12:21:23;;;;;;;25.67;5.03;;;25.80;57.10;;;;;;5056078;28;20032;-57
2023/06/28 12:23:49;;;;;;;43.90;6.72;;;25.80;57.00;;;;;;5058930;28;20089;-57
2023/06/28 12:26:15;;;;;;;53.60;6.80;;;25.90;57.00;;;;;;5039080;28;20122;-57
2023/06/28 12:28:41;;;;;;;64.20;7.28;;;26.00;57.00;;;;;;5057473;28;20092;-57
2023/06/28 12:31:09;;;;;;;57.85;7.05;;;26.00;57.00;;;;;;5026382;28;20029;-57
2023/06/28 12:33:35;;;;;;;48.83;6.70;;;26.00;56.80;;;;;;5060243;28;20040;-57